Jerozolima, Israel

22:59 IDT dnia 25-lipiec-2016 (GMT +0300)
Givat Zeev | | Change Station

Wysokość 2543 ft 31.86 °N, 35.16 °E | Updated 2 minutes ago

Clear
71.8 ° F
Odczuwalna 73 ° F
Płn.
2.0
Wiatr zmienny Wiatr od PnZd
Gusts 3.0 mph

Dziś
Wysoka -- | Niska -- ° F
--% Prawdop. opadów
Wczoraj
Wysoka -- | Niska -- ° F
Precip. -- cali
Ciśnienie 29.71 cali
Widzialność -9999.0 mil
chmury
Odczucie gorąca 73 ° F
Punkt rosy 64 ° F
Wilgotność 75%
Opady deszczu 0.00 cali
grubość pokrywy śnieżnej Niedostępne.
5:50 AM 7:40 PM
Zmniejszający się Księżyc, 63% visible
METAR LLBG 251950Z VRB02KT CAVOK 27/23 Q1006 NOSIG
Ciśnienie 29.71 cali
Widzialność -9999.0 mil
chmury
Odczucie gorąca 73 ° F
Punkt rosy 64 ° F
Wilgotność 75%
Opady deszczu 0.00 cali
grubość pokrywy śnieżnej Niedostępne.
5:50 AM 7:40 PM
Zmniejszający się Księżyc, 63% visible
METAR LLBG 251950Z VRB02KT CAVOK 27/23 Q1006 NOSIG

10-Day Weather Forecast

No radar image for this location.
×

Almanac

Astronomia

Jul. 25, 2016 Wschód Zachów
Aktualny czas
Zmierzch cywilny
Zmierzch żeglarski
świt/zmierzch astronomiczny
Księżyc
całkowite oświetlenie
Długość dnia
Tomorrow will be .
, % of the Moon is Illuminated

Dzisiejsze ekstrema

Country Highs Country Lows

Community

WunderPhotos

Upload Photos

1,927,379 zdjęcia zostały przesłane!

WunderBlog® & News

Nearby

Jakość powietrza

  Jakość powietrza czynnik AQ Zanieczyszczenie
Not available.

Głębokość pokrywy śnieżnej

Station Depth n.p.m.

Aktywność sejsmiczna

Miejscowość Distance Mag. Time & Date
Minimum magnitude displayed is 2.5.

Temperatury wody na wybrzeżu

Miejsce Temperatura

Stations

Najbliższa stacja pogodowa

Lokalizacja stacji Temp. czynnik chłodzący wiatru Punkt rosy Wilgotność Wiatr Precip. Wysokość Uaktualniono Typ